sensor_id;sensor_type;location;lat;lon;timestamp;pressure;altitude;pressure_sealevel;temperature;humidity
9855;BME280;4966;48.112;9.282;2023-04-22T00:00:20;94139.19;;;10.74;84.00
9855;BME280;4966;48.112;9.282;2023-04-22T00:02:46;94124.72;;;10.54;85.36
9855;BME280;4966;48.112;9.282;2023-04-22T00:05:12;94133.47;;;10.48;85.65
9855;BME280;4966;48.112;9.282;2023-04-22T00:07:39;94126.81;;;10.61;85.09
9855;BME280;4966;48.112;9.282;2023-04-22T00:10:06;94147.00;;;10.44;85.65
9855;BME280;4966;48.112;9.282;2023-04-22T00:12:32;94133.56;;;10.35;85.72
9855;BME280;4966;48.112;9.282;2023-04-22T00:14:58;94131.66;;;10.52;85.08
9855;BME280;4966;48.112;9.282;2023-04-22T00:17:23;94127.06;;;10.40;84.99
9855;BME280;4966;48.112;9.282;2023-04-22T00:19:49;94130.59;;;10.40;84.91
9855;BME280;4966;48.112;9.282;2023-04-22T00:22:14;94122.63;;;10.04;86.73
9855;BME280;4966;48.112;9.282;2023-04-22T00:24:40;94127.34;;;10.07;86.36
9855;BME280;4966;48.112;9.282;2023-04-22T00:27:05;94120.97;;;10.15;86.04
9855;BME280;4966;48.112;9.282;2023-04-22T00:29:30;94116.56;;;10.10;86.69
9855;BME280;4966;48.112;9.282;2023-04-22T00:31:56;94124.13;;;10.17;86.71
9855;BME280;4966;48.112;9.282;2023-04-22T00:34:21;94123.47;;;10.36;85.75
9855;BME280;4966;48.112;9.282;2023-04-22T00:36:46;94121.94;;;10.22;85.95
9855;BME280;4966;48.112;9.282;2023-04-22T00:39:12;94116.09;;;10.36;85.14
9855;BME280;4966;48.112;9.282;2023-04-22T00:41:38;94118.00;;;10.20;85.76
9855;BME280;4966;48.112;9.282;2023-04-22T00:44:04;94115.97;;;10.17;86.05
9855;BME280;4966;48.112;9.282;2023-04-22T00:46:32;94113.69;;;10.19;86.00
9855;BME280;4966;48.112;9.282;2023-04-22T00:48:58;94108.00;;;10.24;85.61
9855;BME280;4966;48.112;9.282;2023-04-22T00:51:24;94112.97;;;10.34;84.48
9855;BME280;4966;48.112;9.282;2023-04-22T00:53:50;94111.94;;;10.11;85.25
9855;BME280;4966;48.112;9.282;2023-04-22T00:56:16;94103.41;;;10.12;85.22
9855;BME280;4966;48.112;9.282;2023-04-22T00:58:42;94110.91;;;10.15;84.95
9855;BME280;4966;48.112;9.282;2023-04-22T01:01:08;94110.78;;;10.12;85.25
9855;BME280;4966;48.112;9.282;2023-04-22T01:03:35;94106.69;;;10.18;84.46
9855;BME280;4966;48.112;9.282;2023-04-22T01:06:02;94105.94;;;10.05;85.47
9855;BME280;4966;48.112;9.282;2023-04-22T01:08:28;94106.41;;;10.07;85.47
9855;BME280;4966;48.112;9.282;2023-04-22T01:10:55;94112.09;;;10.02;85.90
9855;BME280;4966;48.112;9.282;2023-04-22T01:13:21;94112.34;;;9.97;86.14
9855;BME280;4966;48.112;9.282;2023-04-22T01:15:46;94110.78;;;10.12;85.76
9855;BME280;4966;48.112;9.282;2023-04-22T01:18:13;94117.56;;;10.18;85.04
9855;BME280;4966;48.112;9.282;2023-04-22T01:20:39;94113.50;;;10.12;85.33
9855;BME280;4966;48.112;9.282;2023-04-22T01:23:06;94122.38;;;10.09;85.42
9855;BME280;4966;48.112;9.282;2023-04-22T01:25:34;94114.09;;;10.05;85.27
9855;BME280;4966;48.112;9.282;2023-04-22T01:27:59;94116.06;;;10.20;84.02
9855;BME280;4966;48.112;9.282;2023-04-22T01:30:25;94108.09;;;10.28;82.77
9855;BME280;4966;48.112;9.282;2023-04-22T01:32:51;94109.88;;;9.92;83.98
9855;BME280;4966;48.112;9.282;2023-04-22T01:35:17;94112.66;;;9.79;84.71
9855;BME280;4966;48.112;9.282;2023-04-22T01:37:42;94114.50;;;9.75;84.83
9855;BME280;4966;48.112;9.282;2023-04-22T01:40:10;94121.41;;;9.73;85.15
9855;BME280;4966;48.112;9.282;2023-04-22T01:42:36;94116.88;;;9.77;85.34
9855;BME280;4966;48.112;9.282;2023-04-22T01:45:02;94114.75;;;9.86;85.39
9855;BME280;4966;48.112;9.282;2023-04-22T01:47:28;94126.00;;;9.85;84.89
9855;BME280;4966;48.112;9.282;2023-04-22T01:49:53;94124.75;;;9.82;85.07
9855;BME280;4966;48.112;9.282;2023-04-22T01:52:19;94124.41;;;9.84;84.39
9855;BME280;4966;48.112;9.282;2023-04-22T01:54:44;94119.41;;;9.86;84.11
9855;BME280;4966;48.112;9.282;2023-04-22T01:57:11;94124.13;;;9.73;84.42
9855;BME280;4966;48.112;9.282;2023-04-22T01:59:38;94123.03;;;9.62;84.84
9855;BME280;4966;48.112;9.282;2023-04-22T02:02:03;94118.69;;;9.73;84.46
9855;BME280;4966;48.112;9.282;2023-04-22T02:04:29;94122.31;;;9.77;84.08
9855;BME280;4966;48.112;9.282;2023-04-22T02:06:54;94110.47;;;9.85;83.44
9855;BME280;4966;48.112;9.282;2023-04-22T02:09:20;94118.34;;;9.46;85.44
9855;BME280;4966;48.112;9.282;2023-04-22T02:11:45;94116.84;;;9.49;85.17
9855;BME280;4966;48.112;9.282;2023-04-22T02:14:10;94129.16;;;9.58;84.74
9855;BME280;4966;48.112;9.282;2023-04-22T02:16:36;94121.66;;;9.27;87.95
9855;BME280;4966;48.112;9.282;2023-04-22T02:19:01;94116.19;;;9.40;86.33
9855;BME280;4966;48.112;9.282;2023-04-22T02:21:30;94115.03;;;9.53;85.02
9855;BME280;4966;48.112;9.282;2023-04-22T02:23:58;94122.13;;;9.29;85.16
9855;BME280;4966;48.112;9.282;2023-04-22T02:26:24;94130.63;;;9.15;85.27
9855;BME280;4966;48.112;9.282;2023-04-22T02:28:50;94120.31;;;9.21;84.83
9855;BME280;4966;48.112;9.282;2023-04-22T02:31:16;94124.53;;;9.06;84.98
9855;BME280;4966;48.112;9.282;2023-04-22T02:33:41;94130.41;;;9.08;84.80
9855;BME280;4966;48.112;9.282;2023-04-22T02:36:06;94121.59;;;8.99;85.13
9855;BME280;4966;48.112;9.282;2023-04-22T02:38:32;94133.78;;;8.93;85.27
9855;BME280;4966;48.112;9.282;2023-04-22T02:40:57;94125.31;;;9.07;84.45
9855;BME280;4966;48.112;9.282;2023-04-22T02:43:22;94129.25;;;9.09;83.84
9855;BME280;4966;48.112;9.282;2023-04-22T02:45:48;94132.69;;;8.82;84.60
9855;BME280;4966;48.112;9.282;2023-04-22T02:48:13;94131.78;;;8.78;85.31
9855;BME280;4966;48.112;9.282;2023-04-22T02:50:39;94127.94;;;8.79;85.53
9855;BME280;4966;48.112;9.282;2023-04-22T02:53:04;94133.34;;;8.42;88.22
9855;BME280;4966;48.112;9.282;2023-04-22T02:55:30;94133.47;;;8.45;87.83
9855;BME280;4966;48.112;9.282;2023-04-22T02:57:55;94136.66;;;8.60;86.51
9855;BME280;4966;48.112;9.282;2023-04-22T03:00:21;94141.50;;;8.66;86.04
9855;BME280;4966;48.112;9.282;2023-04-22T03:02:46;94140.84;;;8.69;85.76
9855;BME280;4966;48.112;9.282;2023-04-22T03:05:12;94136.53;;;8.68;85.23
9855;BME280;4966;48.112;9.282;2023-04-22T03:07:37;94142.84;;;8.48;85.46
9855;BME280;4966;48.112;9.282;2023-04-22T03:10:03;94137.66;;;8.43;85.28
9855;BME280;4966;48.112;9.282;2023-04-22T03:12:28;94137.81;;;8.38;85.01
9855;BME280;4966;48.112;9.282;2023-04-22T03:14:54;94143.59;;;8.36;84.31
9855;BME280;4966;48.112;9.282;2023-04-22T03:17:20;94142.47;;;8.37;84.28
9855;BME280;4966;48.112;9.282;2023-04-22T03:19:45;94134.63;;;8.23;84.62
9855;BME280;4966;48.112;9.282;2023-04-22T03:22:11;94131.59;;;8.13;84.73
9855;BME280;4966;48.112;9.282;2023-04-22T03:24:36;94128.31;;;8.07;85.28
9855;BME280;4966;48.112;9.282;2023-04-22T03:27:02;94119.03;;;8.08;85.54
9855;BME280;4966;48.112;9.282;2023-04-22T03:29:28;94128.25;;;7.95;86.75
9855;BME280;4966;48.112;9.282;2023-04-22T03:31:53;94132.44;;;8.04;85.77
9855;BME280;4966;48.112;9.282;2023-04-22T03:34:18;94137.00;;;8.13;85.86
9855;BME280;4966;48.112;9.282;2023-04-22T03:36:44;94131.44;;;8.09;85.30
9855;BME280;4966;48.112;9.282;2023-04-22T03:39:09;94134.31;;;8.25;85.20
9855;BME280;4966;48.112;9.282;2023-04-22T03:41:34;94141.53;;;8.33;84.28
9855;BME280;4966;48.112;9.282;2023-04-22T03:44:00;94134.69;;;8.36;83.05
9855;BME280;4966;48.112;9.282;2023-04-22T03:46:25;94145.69;;;8.18;83.36
9855;BME280;4966;48.112;9.282;2023-04-22T03:48:50;94145.56;;;8.02;83.88
9855;BME280;4966;48.112;9.282;2023-04-22T03:51:16;94151.31;;;8.01;83.92
9855;BME280;4966;48.112;9.282;2023-04-22T03:53:41;94142.25;;;7.97;83.75
9855;BME280;4966;48.112;9.282;2023-04-22T03:56:06;94150.63;;;8.04;83.46
9855;BME280;4966;48.112;9.282;2023-04-22T03:58:32;94149.16;;;7.73;84.31
9855;BME280;4966;48.112;9.282;2023-04-22T04:00:57;94137.44;;;7.69;84.56
9855;BME280;4966;48.112;9.282;2023-04-22T04:03:22;94139.22;;;7.65;84.69
9855;BME280;4966;48.112;9.282;2023-04-22T04:05:48;94143.44;;;7.54;86.73
9855;BME280;4966;48.112;9.282;2023-04-22T04:08:13;94137.94;;;7.83;84.98
9855;BME280;4966;48.112;9.282;2023-04-22T04:10:38;94139.25;;;7.77;85.50
9855;BME280;4966;48.112;9.282;2023-04-22T04:13:04;94130.19;;;7.94;84.91
9855;BME280;4966;48.112;9.282;2023-04-22T04:15:29;94134.72;;;8.02;84.01
9855;BME280;4966;48.112;9.282;2023-04-22T04:17:54;94138.22;;;8.03;83.38
9855;BME280;4966;48.112;9.282;2023-04-22T04:20:21;94138.66;;;7.93;83.47
9855;BME280;4966;48.112;9.282;2023-04-22T04:22:46;94133.47;;;8.00;82.41
9855;BME280;4966;48.112;9.282;2023-04-22T04:25:11;94139.78;;;7.71;83.77
9855;BME280;4966;48.112;9.282;2023-04-22T04:27:37;94142.19;;;7.72;84.01
9855;BME280;4966;48.112;9.282;2023-04-22T04:30:04;94139.88;;;7.62;84.71
9855;BME280;4966;48.112;9.282;2023-04-22T04:32:29;94138.53;;;7.68;85.31
9855;BME280;4966;48.112;9.282;2023-04-22T04:34:58;94145.94;;;7.80;85.51
9855;BME280;4966;48.112;9.282;2023-04-22T04:37:24;94148.78;;;7.83;85.40
9855;BME280;4966;48.112;9.282;2023-04-22T04:39:49;94145.66;;;8.06;85.02
9855;BME280;4966;48.112;9.282;2023-04-22T04:42:14;94138.25;;;8.15;84.04
9855;BME280;4966;48.112;9.282;2023-04-22T04:44:40;94135.53;;;8.15;84.44
9855;BME280;4966;48.112;9.282;2023-04-22T04:47:05;94138.16;;;8.24;82.98
9855;BME280;4966;48.112;9.282;2023-04-22T04:49:31;94145.03;;;8.21;83.13
9855;BME280;4966;48.112;9.282;2023-04-22T04:51:56;94145.38;;;8.32;81.92
9855;BME280;4966;48.112;9.282;2023-04-22T04:54:22;94144.25;;;8.33;81.07
9855;BME280;4966;48.112;9.282;2023-04-22T04:56:47;94135.22;;;8.29;82.62
9855;BME280;4966;48.112;9.282;2023-04-22T04:59:13;94149.00;;;8.24;83.22
9855;BME280;4966;48.112;9.282;2023-04-22T05:01:38;94140.09;;;8.36;83.78
9855;BME280;4966;48.112;9.282;2023-04-22T05:04:03;94152.56;;;8.61;83.23
9855;BME280;4966;48.112;9.282;2023-04-22T05:06:29;94153.16;;;8.79;82.17
9855;BME280;4966;48.112;9.282;2023-04-22T05:08:55;94150.06;;;8.93;81.89
9855;BME280;4966;48.112;9.282;2023-04-22T05:11:20;94160.22;;;9.21;79.32
9855;BME280;4966;48.112;9.282;2023-04-22T05:13:46;94155.13;;;9.19;79.53
9855;BME280;4966;48.112;9.282;2023-04-22T05:16:11;94159.09;;;9.22;79.17
9855;BME280;4966;48.112;9.282;2023-04-22T05:18:37;94159.31;;;9.41;78.39
9855;BME280;4966;48.112;9.282;2023-04-22T05:21:04;94164.00;;;9.56;77.48
9855;BME280;4966;48.112;9.282;2023-04-22T05:23:30;94155.78;;;9.41;78.50
9855;BME280;4966;48.112;9.282;2023-04-22T05:25:56;94160.88;;;9.42;79.37
9855;BME280;4966;48.112;9.282;2023-04-22T05:28:21;94168.84;;;9.63;79.44
9855;BME280;4966;48.112;9.282;2023-04-22T05:30:47;94167.97;;;9.87;78.44
9855;BME280;4966;48.112;9.282;2023-04-22T05:33:12;94169.56;;;9.60;79.36
9855;BME280;4966;48.112;9.282;2023-04-22T05:35:37;94171.13;;;9.61;80.94
9855;BME280;4966;48.112;9.282;2023-04-22T05:38:03;94170.13;;;10.10;77.68
9855;BME280;4966;48.112;9.282;2023-04-22T05:40:28;94163.91;;;10.09;77.97
9855;BME280;4966;48.112;9.282;2023-04-22T05:42:53;94169.53;;;10.16;77.95
9855;BME280;4966;48.112;9.282;2023-04-22T05:45:19;94171.03;;;10.14;77.80
9855;BME280;4966;48.112;9.282;2023-04-22T05:47:44;94173.41;;;10.15;78.91
9855;BME280;4966;48.112;9.282;2023-04-22T05:50:10;94162.41;;;10.56;76.23
9855;BME280;4966;48.112;9.282;2023-04-22T05:52:35;94166.22;;;10.83;74.92
9855;BME280;4966;48.112;9.282;2023-04-22T05:55:00;94167.06;;;11.19;73.20
9855;BME280;4966;48.112;9.282;2023-04-22T05:57:26;94168.44;;;11.28;73.22
9855;BME280;4966;48.112;9.282;2023-04-22T05:59:51;94170.81;;;11.30;73.53
9855;BME280;4966;48.112;9.282;2023-04-22T06:02:16;94173.75;;;11.57;73.01
9855;BME280;4966;48.112;9.282;2023-04-22T06:04:42;94178.28;;;11.68;73.58
9855;BME280;4966;48.112;9.282;2023-04-22T06:07:07;94178.75;;;11.90;72.56
9855;BME280;4966;48.112;9.282;2023-04-22T06:09:33;94173.84;;;12.19;72.18
9855;BME280;4966;48.112;9.282;2023-04-22T06:11:58;94175.56;;;12.27;71.28
9855;BME280;4966;48.112;9.282;2023-04-22T06:14:24;94173.34;;;12.55;70.80
9855;BME280;4966;48.112;9.282;2023-04-22T06:16:49;94171.50;;;12.40;72.29
9855;BME280;4966;48.112;9.282;2023-04-22T06:19:16;94172.19;;;11.95;74.77
9855;BME280;4966;48.112;9.282;2023-04-22T06:21:42;94174.09;;;11.55;77.70
9855;BME280;4966;48.112;9.282;2023-04-22T06:24:07;94173.38;;;11.78;76.75
9855;BME280;4966;48.112;9.282;2023-04-22T06:26:35;94161.91;;;12.69;73.05
9855;BME280;4966;48.112;9.282;2023-04-22T06:29:01;94164.72;;;12.99;71.37
9855;BME280;4966;48.112;9.282;2023-04-22T06:31:29;94155.53;;;13.61;69.98
9855;BME280;4966;48.112;9.282;2023-04-22T06:33:55;94164.25;;;13.70;69.03
9855;BME280;4966;48.112;9.282;2023-04-22T06:36:20;94163.25;;;14.16;67.68
9855;BME280;4966;48.112;9.282;2023-04-22T06:38:46;94151.03;;;14.06;68.37
9855;BME280;4966;48.112;9.282;2023-04-22T06:41:12;94155.09;;;13.59;72.71
9855;BME280;4966;48.112;9.282;2023-04-22T06:43:38;94157.28;;;14.07;70.61
9855;BME280;4966;48.112;9.282;2023-04-22T06:46:03;94154.00;;;14.28;69.24
9855;BME280;4966;48.112;9.282;2023-04-22T06:48:29;94160.94;;;14.55;68.67
9855;BME280;4966;48.112;9.282;2023-04-22T06:50:54;94156.97;;;14.49;68.95
9855;BME280;4966;48.112;9.282;2023-04-22T06:53:21;94160.13;;;14.51;68.94
9855;BME280;4966;48.112;9.282;2023-04-22T06:55:47;94156.38;;;14.66;67.40
9855;BME280;4966;48.112;9.282;2023-04-22T06:58:12;94152.41;;;15.01;64.87
9855;BME280;4966;48.112;9.282;2023-04-22T07:00:37;94154.03;;;15.13;64.54
9855;BME280;4966;48.112;9.282;2023-04-22T07:03:03;94153.19;;;15.05;65.99
9855;BME280;4966;48.112;9.282;2023-04-22T07:05:28;94149.50;;;15.35;63.85
9855;BME280;4966;48.112;9.282;2023-04-22T07:07:53;94152.72;;;15.44;62.55
9855;BME280;4966;48.112;9.282;2023-04-22T07:10:19;94146.25;;;15.74;61.20
9855;BME280;4966;48.112;9.282;2023-04-22T07:12:44;94135.34;;;15.88;60.03
9855;BME280;4966;48.112;9.282;2023-04-22T07:15:10;94134.31;;;16.25;58.26
9855;BME280;4966;48.112;9.282;2023-04-22T07:17:35;94137.50;;;16.42;57.70
9855;BME280;4966;48.112;9.282;2023-04-22T07:20:01;94143.34;;;16.26;57.29
9855;BME280;4966;48.112;9.282;2023-04-22T07:22:26;94156.19;;;16.11;58.85
9855;BME280;4966;48.112;9.282;2023-04-22T07:24:51;94155.78;;;16.09;57.87
9855;BME280;4966;48.112;9.282;2023-04-22T07:27:17;94169.44;;;15.91;58.40
9855;BME280;4966;48.112;9.282;2023-04-22T07:29:43;94169.28;;;15.66;57.33
9855;BME280;4966;48.112;9.282;2023-04-22T07:32:09;94167.94;;;16.01;56.53
9855;BME280;4966;48.112;9.282;2023-04-22T07:34:34;94167.31;;;16.47;56.80
9855;BME280;4966;48.112;9.282;2023-04-22T07:37:00;94171.03;;;15.95;57.38
9855;BME280;4966;48.112;9.282;2023-04-22T07:39:25;94174.31;;;16.30;56.19
9855;BME280;4966;48.112;9.282;2023-04-22T07:41:51;94172.78;;;16.36;57.17
9855;BME280;4966;48.112;9.282;2023-04-22T07:44:17;94180.47;;;16.02;58.51
9855;BME280;4966;48.112;9.282;2023-04-22T07:46:46;94180.28;;;15.69;59.79
9855;BME280;4966;48.112;9.282;2023-04-22T07:49:11;94184.69;;;15.85;60.39
9855;BME280;4966;48.112;9.282;2023-04-22T07:51:38;94182.69;;;15.74;60.15
9855;BME280;4966;48.112;9.282;2023-04-22T07:54:03;94184.06;;;16.20;58.66
9855;BME280;4966;48.112;9.282;2023-04-22T07:56:29;94180.63;;;16.45;56.94
9855;BME280;4966;48.112;9.282;2023-04-22T07:58:54;94175.00;;;16.05;58.58
9855;BME280;4966;48.112;9.282;2023-04-22T08:01:20;94176.22;;;16.15;57.42
9855;BME280;4966;48.112;9.282;2023-04-22T08:03:45;94180.16;;;16.14;58.21
9855;BME280;4966;48.112;9.282;2023-04-22T08:06:11;94179.03;;;16.26;57.80
9855;BME280;4966;48.112;9.282;2023-04-22T08:08:36;94187.63;;;16.28;59.60
9855;BME280;4966;48.112;9.282;2023-04-22T08:11:02;94176.50;;;15.92;60.53
9855;BME280;4966;48.112;9.282;2023-04-22T08:13:27;94185.16;;;15.98;59.93
9855;BME280;4966;48.112;9.282;2023-04-22T08:15:52;94183.22;;;16.09;58.78
9855;BME280;4966;48.112;9.282;2023-04-22T08:18:18;94179.19;;;16.83;57.60
9855;BME280;4966;48.112;9.282;2023-04-22T08:20:45;94171.38;;;17.39;52.64
9855;BME280;4966;48.112;9.282;2023-04-22T08:23:11;94167.03;;;16.88;54.71
9855;BME280;4966;48.112;9.282;2023-04-22T08:25:36;94157.63;;;17.14;53.43
9855;BME280;4966;48.112;9.282;2023-04-22T08:28:02;94148.19;;;17.47;49.33
9855;BME280;4966;48.112;9.282;2023-04-22T08:30:27;94145.78;;;17.71;48.70
9855;BME280;4966;48.112;9.282;2023-04-22T08:32:53;94148.97;;;17.26;51.66
9855;BME280;4966;48.112;9.282;2023-04-22T08:35:19;94148.22;;;17.22;51.14
9855;BME280;4966;48.112;9.282;2023-04-22T08:37:44;94148.59;;;16.95;51.99
9855;BME280;4966;48.112;9.282;2023-04-22T08:40:09;94141.94;;;17.14;49.58
9855;BME280;4966;48.112;9.282;2023-04-22T08:42:36;94146.63;;;17.39;49.35
9855;BME280;4966;48.112;9.282;2023-04-22T08:45:02;94143.09;;;17.42;48.98
9855;BME280;4966;48.112;9.282;2023-04-22T08:47:28;94141.09;;;17.82;48.12
9855;BME280;4966;48.112;9.282;2023-04-22T08:49:55;94143.00;;;17.92;47.63
9855;BME280;4966;48.112;9.282;2023-04-22T08:52:20;94146.81;;;18.27;47.32
9855;BME280;4966;48.112;9.282;2023-04-22T08:54:46;94144.09;;;18.16;47.22
9855;BME280;4966;48.112;9.282;2023-04-22T08:57:13;94145.41;;;17.87;48.94
9855;BME280;4966;48.112;9.282;2023-04-22T08:59:40;94138.22;;;18.11;47.41
9855;BME280;4966;48.112;9.282;2023-04-22T09:02:12;94140.16;;;18.21;48.31
9855;BME280;4966;48.112;9.282;2023-04-22T09:04:39;94147.63;;;18.20;48.37
9855;BME280;4966;48.112;9.282;2023-04-22T09:07:05;94151.25;;;18.03;48.73
9855;BME280;4966;48.112;9.282;2023-04-22T09:09:31;94155.09;;;18.27;48.69
9855;BME280;4966;48.112;9.282;2023-04-22T09:11:56;94153.56;;;18.12;49.00
9855;BME280;4966;48.112;9.282;2023-04-22T09:14:23;94148.16;;;18.67;48.65
9855;BME280;4966;48.112;9.282;2023-04-22T09:16:48;94143.94;;;19.15;48.12
9855;BME280;4966;48.112;9.282;2023-04-22T09:19:14;94137.19;;;19.65;45.63
9855;BME280;4966;48.112;9.282;2023-04-22T09:21:40;94142.97;;;18.84;48.22
9855;BME280;4966;48.112;9.282;2023-04-22T09:24:07;94140.88;;;19.02;47.14
9855;BME280;4966;48.112;9.282;2023-04-22T09:26:33;94135.25;;;19.17;46.29
9855;BME280;4966;48.112;9.282;2023-04-22T09:29:02;94142.34;;;19.63;45.57
9855;BME280;4966;48.112;9.282;2023-04-22T09:31:33;94146.88;;;19.39;47.97
9855;BME280;4966;48.112;9.282;2023-04-22T09:33:59;94143.22;;;19.52;45.17
9855;BME280;4966;48.112;9.282;2023-04-22T09:36:26;94148.28;;;19.99;43.15
9855;BME280;4966;48.112;9.282;2023-04-22T09:38:54;94136.78;;;20.08;46.00
9855;BME280;4966;48.112;9.282;2023-04-22T09:41:29;94134.16;;;20.28;45.60
9855;BME280;4966;48.112;9.282;2023-04-22T09:43:57;94130.03;;;19.74;47.30
9855;BME280;4966;48.112;9.282;2023-04-22T09:46:23;94138.22;;;20.19;46.71
9855;BME280;4966;48.112;9.282;2023-04-22T09:48:50;94134.78;;;19.74;46.25
9855;BME280;4966;48.112;9.282;2023-04-22T09:51:16;94134.78;;;19.74;46.19
9855;BME280;4966;48.112;9.282;2023-04-22T09:53:42;94127.88;;;19.51;46.67
9855;BME280;4966;48.112;9.282;2023-04-22T09:56:08;94131.16;;;19.81;45.79
9855;BME280;4966;48.112;9.282;2023-04-22T09:58:37;94127.09;;;19.92;45.27
9855;BME280;4966;48.112;9.282;2023-04-22T10:01:04;94129.34;;;20.35;44.23
9855;BME280;4966;48.112;9.282;2023-04-22T10:03:29;94137.00;;;20.51;44.29
9855;BME280;4966;48.112;9.282;2023-04-22T10:05:55;94124.78;;;20.83;42.43
9855;BME280;4966;48.112;9.282;2023-04-22T10:08:21;94123.00;;;21.47;39.72
9855;BME280;4966;48.112;9.282;2023-04-22T10:10:46;94125.44;;;20.33;39.22
9855;BME280;4966;48.112;9.282;2023-04-22T10:13:12;94122.22;;;20.69;39.03
9855;BME280;4966;48.112;9.282;2023-04-22T10:15:39;94121.47;;;21.66;39.01
9855;BME280;4966;48.112;9.282;2023-04-22T10:18:10;94111.72;;;22.01;38.52
9855;BME280;4966;48.112;9.282;2023-04-22T10:20:38;94115.28;;;22.02;39.71
9855;BME280;4966;48.112;9.282;2023-04-22T10:23:05;94110.97;;;22.21;36.54
9855;BME280;4966;48.112;9.282;2023-04-22T10:25:36;94116.53;;;22.57;38.43
9855;BME280;4966;48.112;9.282;2023-04-22T10:28:05;94114.56;;;22.94;35.07
9855;BME280;4966;48.112;9.282;2023-04-22T10:30:34;94109.91;;;23.07;35.12
9855;BME280;4966;48.112;9.282;2023-04-22T10:41:13;94107.31;;;23.17;35.97
9855;BME280;4966;48.112;9.282;2023-04-22T10:43:55;94106.69;;;23.09;35.44
9855;BME280;4966;48.112;9.282;2023-04-22T10:49:19;94110.78;;;23.21;37.02
9855;BME280;4966;48.112;9.282;2023-04-22T10:51:47;94103.31;;;23.18;36.29
9855;BME280;4966;48.112;9.282;2023-04-22T10:57:13;94105.63;;;23.68;35.61
9855;BME280;4966;48.112;9.282;2023-04-22T10:59:48;94105.31;;;23.17;36.48
9855;BME280;4966;48.112;9.282;2023-04-22T11:02:14;94104.25;;;24.06;36.49
9855;BME280;4966;48.112;9.282;2023-04-22T11:04:41;94092.25;;;22.98;37.97
9855;BME280;4966;48.112;9.282;2023-04-22T11:15:13;94092.59;;;24.11;35.51
9855;BME280;4966;48.112;9.282;2023-04-22T11:17:42;94097.09;;;23.30;35.44
9855;BME280;4966;48.112;9.282;2023-04-22T11:20:08;94101.03;;;24.07;36.08
9855;BME280;4966;48.112;9.282;2023-04-22T11:22:35;94101.09;;;24.75;35.97
9855;BME280;4966;48.112;9.282;2023-04-22T11:25:01;94093.53;;;25.87;33.98
9855;BME280;4966;48.112;9.282;2023-04-22T11:27:28;94099.69;;;25.21;34.77
9855;BME280;4966;48.112;9.282;2023-04-22T11:30:05;94095.41;;;25.90;32.74
9855;BME280;4966;48.112;9.282;2023-04-22T11:32:36;94103.31;;;25.44;32.19
9855;BME280;4966;48.112;9.282;2023-04-22T11:35:03;94093.63;;;26.62;31.64
9855;BME280;4966;48.112;9.282;2023-04-22T11:37:29;94100.06;;;28.91;27.13
9855;BME280;4966;48.112;9.282;2023-04-22T11:40:01;94085.09;;;28.06;28.41
9855;BME280;4966;48.112;9.282;2023-04-22T11:42:28;94090.06;;;29.09;27.83
9855;BME280;4966;48.112;9.282;2023-04-22T11:44:54;94085.88;;;29.71;27.06
9855;BME280;4966;48.112;9.282;2023-04-22T11:47:19;94082.06;;;28.83;27.65
9855;BME280;4966;48.112;9.282;2023-04-22T11:49:58;94084.19;;;29.31;26.63
9855;BME280;4966;48.112;9.282;2023-04-22T11:52:24;94084.28;;;28.51;27.82
9855;BME280;4966;48.112;9.282;2023-04-22T11:55:03;94087.66;;;30.46;24.83
9855;BME280;4966;48.112;9.282;2023-04-22T11:57:34;94077.13;;;30.56;24.79
9855;BME280;4966;48.112;9.282;2023-04-22T12:00:00;94086.97;;;31.61;23.53
9855;BME280;4966;48.112;9.282;2023-04-22T12:02:25;94077.88;;;30.71;24.50
9855;BME280;4966;48.112;9.282;2023-04-22T12:04:51;94087.41;;;30.20;25.70
9855;BME280;4966;48.112;9.282;2023-04-22T12:07:16;94082.25;;;29.22;25.71
9855;BME280;4966;48.112;9.282;2023-04-22T12:09:41;94071.09;;;30.48;24.81
9855;BME280;4966;48.112;9.282;2023-04-22T12:12:07;94072.03;;;28.49;26.98
9855;BME280;4966;48.112;9.282;2023-04-22T12:14:35;94067.81;;;30.64;24.58
9855;BME280;4966;48.112;9.282;2023-04-22T12:17:07;94063.56;;;30.54;21.84
9855;BME280;4966;48.112;9.282;2023-04-22T12:19:33;94059.47;;;32.06;20.68
9855;BME280;4966;48.112;9.282;2023-04-22T12:21:58;94057.41;;;32.27;20.57
9855;BME280;4966;48.112;9.282;2023-04-22T12:24:27;94058.91;;;30.81;24.00
9855;BME280;4966;48.112;9.282;2023-04-22T12:26:53;94054.25;;;32.19;22.82
9855;BME280;4966;48.112;9.282;2023-04-22T12:29:32;94051.69;;;31.95;21.98
9855;BME280;4966;48.112;9.282;2023-04-22T12:31:58;94054.66;;;32.84;20.76
9855;BME280;4966;48.112;9.282;2023-04-22T12:34:24;94058.53;;;31.94;21.57
9855;BME280;4966;48.112;9.282;2023-04-22T12:36:49;94061.34;;;31.38;21.43
9855;BME280;4966;48.112;9.282;2023-04-22T12:39:15;94072.06;;;30.30;23.53
9855;BME280;4966;48.112;9.282;2023-04-22T12:41:40;94063.75;;;30.80;22.63
9855;BME280;4966;48.112;9.282;2023-04-22T12:44:06;94066.78;;;28.93;24.53
9855;BME280;4966;48.112;9.282;2023-04-22T12:46:33;94063.91;;;27.49;25.68
9855;BME280;4966;48.112;9.282;2023-04-22T12:49:00;94072.28;;;26.68;26.23
9855;BME280;4966;48.112;9.282;2023-04-22T12:51:25;94072.03;;;27.84;23.51
9855;BME280;4966;48.112;9.282;2023-04-22T12:53:51;94067.44;;;30.86;22.69
9855;BME280;4966;48.112;9.282;2023-04-22T12:56:17;94060.06;;;30.44;20.83
9855;BME280;4966;48.112;9.282;2023-04-22T12:58:42;94058.31;;;30.62;21.45
9855;BME280;4966;48.112;9.282;2023-04-22T13:01:07;94070.63;;;30.64;19.92
9855;BME280;4966;48.112;9.282;2023-04-22T13:03:33;94065.78;;;33.63;18.08
9855;BME280;4966;48.112;9.282;2023-04-22T13:05:58;94064.28;;;34.27;17.65
9855;BME280;4966;48.112;9.282;2023-04-22T13:08:23;94059.41;;;32.73;18.34
9855;BME280;4966;48.112;9.282;2023-04-22T13:10:49;94063.47;;;34.16;17.87
9855;BME280;4966;48.112;9.282;2023-04-22T13:13:14;94061.59;;;35.01;15.85
9855;BME280;4966;48.112;9.282;2023-04-22T13:15:40;94050.59;;;35.25;15.50
9855;BME280;4966;48.112;9.282;2023-04-22T13:18:05;94059.41;;;34.34;15.70
9855;BME280;4966;48.112;9.282;2023-04-22T13:20:30;94051.41;;;33.66;16.86
9855;BME280;4966;48.112;9.282;2023-04-22T13:22:56;94046.94;;;33.11;18.53
9855;BME280;4966;48.112;9.282;2023-04-22T13:25:22;94044.06;;;31.81;18.48
9855;BME280;4966;48.112;9.282;2023-04-22T13:27:47;94049.09;;;31.21;18.47
9855;BME280;4966;48.112;9.282;2023-04-22T13:30:12;94042.34;;;31.48;17.79
9855;BME280;4966;48.112;9.282;2023-04-22T13:32:38;94043.41;;;29.39;20.30
9855;BME280;4966;48.112;9.282;2023-04-22T13:35:04;94047.38;;;26.52;21.78
9855;BME280;4966;48.112;9.282;2023-04-22T13:37:29;94044.78;;;27.39;21.73
9855;BME280;4966;48.112;9.282;2023-04-22T13:39:54;94037.19;;;26.27;23.13